createdAt,value
2023-01-20T00:00:05.321Z,-1.15
2023-01-20T00:01:05.441Z,-1.09
2023-01-20T00:02:06.654Z,-1.07
2023-01-20T00:03:07.315Z,-1.12
2023-01-20T00:04:07.360Z,-1.03
2023-01-20T00:05:08.558Z,-1.14
2023-01-20T00:06:08.802Z,-1.04
2023-01-20T00:07:09.736Z,-1.06
2023-01-20T00:08:10.763Z,-1.11
2023-01-20T00:09:11.984Z,-1.12
2023-01-20T00:10:12.178Z,-1.12
2023-01-20T00:11:12.707Z,-1.11
2023-01-20T00:12:13.917Z,-1.11
2023-01-20T00:13:14.165Z,-1.11
2023-01-20T00:14:14.562Z,-1.12
2023-01-20T00:15:16.449Z,-1.09
2023-01-20T00:16:16.818Z,-1.09
2023-01-20T00:17:17.210Z,-1.12
2023-01-20T00:18:17.842Z,-1.12
2023-01-20T00:19:18.741Z,-1.09
2023-01-20T00:20:19.654Z,-1.11
2023-01-20T00:21:20.398Z,-1.14
2023-01-20T00:22:21.037Z,-1.14
2023-01-20T00:23:21.962Z,-1.15
2023-01-20T00:24:22.658Z,-1.12
2023-01-20T00:25:22.560Z,-1.07
2023-01-20T00:26:23.493Z,-1.03
2023-01-20T00:27:26.402Z,-1.07
2023-01-20T00:28:24.340Z,-1.07
2023-01-20T00:29:25.279Z,-1.04
2023-01-20T00:30:25.971Z,-1.11
2023-01-20T00:31:26.420Z,-1.12
2023-01-20T00:32:27.143Z,-1.12
2023-01-20T00:33:27.072Z,-1.07
2023-01-20T00:34:28.004Z,-1.11
2023-01-20T00:35:29.203Z,-1.14
2023-01-20T00:36:30.124Z,-1.09
2023-01-20T00:37:30.309Z,-1.15
2023-01-20T00:38:31.009Z,-1.18
2023-01-20T00:39:31.753Z,-1.3
2023-01-20T00:40:32.679Z,-1.25
2023-01-20T00:41:33.426Z,-1.33
2023-01-20T00:42:33.943Z,-1.33
2023-01-20T00:43:34.452Z,-1.27
2023-01-20T00:44:35.228Z,-1.25
2023-01-20T00:45:35.458Z,-1.29
2023-01-20T00:46:35.925Z,-1.25
2023-01-20T00:47:36.254Z,-1.27
2023-01-20T00:48:36.464Z,-1.25
2023-01-20T00:49:37.397Z,-1.25
2023-01-20T00:50:38.314Z,-1.29
2023-01-20T00:51:38.382Z,-1.3
2023-01-20T00:52:39.589Z,-1.33
2023-01-20T00:53:39.506Z,-1.29
2023-01-20T00:54:39.706Z,-1.3
2023-01-20T00:55:40.058Z,-1.29
2023-01-20T00:56:40.990Z,-1.27
2023-01-20T00:57:41.208Z,-1.3
2023-01-20T00:58:41.847Z,-1.25
2023-01-20T00:59:42.511Z,-1.3
2023-01-20T01:00:44.261Z,-1.29
2023-01-20T01:01:44.830Z,-1.24
2023-01-20T01:02:44.031Z,-1.27
2023-01-20T01:03:44.522Z,-1.29
2023-01-20T01:04:45.436Z,-1.29
2023-01-20T01:05:46.386Z,-1.32
2023-01-20T01:06:47.072Z,-1.32
2023-01-20T01:07:48.286Z,-1.29
2023-01-20T01:08:48.204Z,-1.29
2023-01-20T01:09:48.689Z,-1.29
2023-01-20T01:10:49.638Z,-1.29
2023-01-20T01:11:50.642Z,-1.24
2023-01-20T01:12:50.864Z,-1.17
2023-01-20T01:13:51.532Z,-1.18
2023-01-20T01:14:52.486Z,-1.17
2023-01-20T01:15:52.759Z,-1.14
2023-01-20T01:16:55.876Z,-1.19
2023-01-20T01:17:53.931Z,-1.14
2023-01-20T01:18:54.873Z,-1.17
2023-01-20T01:19:54.499Z,-1.29
2023-01-20T01:20:55.434Z,-1.29
2023-01-20T01:21:55.808Z,-1.32
2023-01-20T01:22:56.015Z,-1.3
2023-01-20T01:23:56.511Z,-1.3
2023-01-20T01:24:57.446Z,-1.29
2023-01-20T01:25:58.421Z,-1.38
2023-01-20T01:26:59.327Z,-1.39
2023-01-20T01:27:59.573Z,-1.39
2023-01-20T01:28:59.839Z,-1.45
2023-01-20T01:30:00.072Z,-1.45
2023-01-20T01:31:00.690Z,-1.43
2023-01-20T01:32:01.057Z,-1.46
2023-01-20T01:33:01.245Z,-1.54
2023-01-20T01:34:01.770Z,-1.56
2023-01-20T01:35:01.590Z,-1.46
2023-01-20T01:36:02.322Z,-1.57
2023-01-20T01:37:03.536Z,-1.53
2023-01-20T01:38:04.176Z,-1.48
2023-01-20T01:39:05.113Z,-1.51
2023-01-20T01:40:05.401Z,-1.54
2023-01-20T01:41:06.659Z,-1.61
2023-01-20T01:42:06.415Z,-1.57
2023-01-20T01:43:07.347Z,-1.53
2023-01-20T01:44:07.867Z,-1.54
2023-01-20T01:45:08.390Z,-1.58
2023-01-20T01:46:09.257Z,-1.53
2023-01-20T01:47:10.183Z,-1.61
2023-01-20T01:48:10.107Z,-1.5
2023-01-20T01:49:11.330Z,-1.54
2023-01-20T01:50:11.520Z,-1.57
2023-01-20T01:51:12.755Z,-1.57
2023-01-20T01:52:13.213Z,-1.6
2023-01-20T01:53:13.412Z,-1.61
2023-01-20T01:54:14.360Z,-1.58
2023-01-20T01:55:16.010Z,-1.53
2023-01-20T01:56:15.589Z,-1.58
2023-01-20T01:57:16.091Z,-1.61
2023-01-20T01:58:16.335Z,-1.5
2023-01-20T01:59:17.581Z,-1.58
2023-01-20T02:00:17.543Z,-1.53
2023-01-20T02:01:18.302Z,-1.51
2023-01-20T02:02:24.542Z,-1.51
2023-01-20T02:03:19.301Z,-1.56
2023-01-20T02:04:19.491Z,-1.51
2023-01-20T02:05:20.413Z,-1.53
2023-01-20T02:06:20.624Z,-1.57
2023-01-20T02:07:20.728Z,-1.5
2023-01-20T02:08:22.241Z,-1.48
2023-01-20T02:09:22.720Z,-1.51
2023-01-20T02:10:22.917Z,-1.51
2023-01-20T02:11:23.918Z,-1.54
2023-01-20T02:12:24.958Z,-1.6
2023-01-20T02:13:25.197Z,-1.6
2023-01-20T02:14:26.126Z,-1.57
2023-01-20T02:15:26.783Z,-1.6
2023-01-20T02:16:28.130Z,-1.63
2023-01-20T02:17:28.608Z,-1.56
2023-01-20T02:18:29.677Z,-1.6
2023-01-20T02:19:30.600Z,-1.69
2023-01-20T02:20:30.534Z,-1.63
2023-01-20T02:21:31.764Z,-1.66
2023-01-20T02:22:32.505Z,-1.6
2023-01-20T02:23:32.706Z,-1.68
2023-01-20T02:24:32.618Z,-1.66
2023-01-20T02:25:33.103Z,-1.58
2023-01-20T02:26:33.347Z,-1.68
2023-01-20T02:27:34.272Z,-1.68
2023-01-20T02:28:35.211Z,-1.69
2023-01-20T02:29:35.491Z,-1.64
2023-01-20T02:30:35.626Z,-1.68
2023-01-20T02:31:36.139Z,-1.6
2023-01-20T02:32:36.846Z,-1.6
2023-01-20T02:33:37.493Z,-1.71
2023-01-20T02:34:38.422Z,-1.61
2023-01-20T02:35:39.065Z,-1.63
2023-01-20T02:36:39.972Z,-1.71
2023-01-20T02:37:39.993Z,-1.64
2023-01-20T02:38:40.177Z,-1.63
2023-01-20T02:39:40.532Z,-1.58
2023-01-20T02:40:40.762Z,-1.74
2023-01-20T02:41:41.256Z,-1.74
2023-01-20T02:42:41.994Z,-1.71
2023-01-20T02:43:43.200Z,-1.66
2023-01-20T02:44:43.753Z,-1.63
2023-01-20T02:45:43.792Z,-1.72
2023-01-20T02:46:44.185Z,-1.71
2023-01-20T02:47:52.453Z,-1.81
2023-01-20T02:48:44.799Z,-1.79
2023-01-20T02:49:46.296Z,-1.74
2023-01-20T02:50:46.228Z,-1.78
2023-01-20T02:51:47.135Z,-1.76
2023-01-20T02:52:48.442Z,-1.72
2023-01-20T02:53:48.952Z,-1.69
2023-01-20T02:54:48.908Z,-1.76
2023-01-20T02:55:49.546Z,-1.69
2023-01-20T02:56:50.181Z,-1.72
2023-01-20T02:57:51.377Z,-1.72
2023-01-20T02:58:51.614Z,-1.72
2023-01-20T02:59:51.844Z,-1.79
2023-01-20T03:00:52.170Z,-1.69
2023-01-20T03:01:53.519Z,-1.74
2023-01-20T03:02:53.731Z,-1.71
2023-01-20T03:03:54.902Z,-1.68
2023-01-20T03:04:55.310Z,-1.71
2023-01-20T03:05:55.803Z,-1.68
2023-01-20T03:06:56.133Z,-1.72
2023-01-20T03:07:56.079Z,-1.78
2023-01-20T03:08:57.318Z,-1.61
2023-01-20T03:09:58.208Z,-1.76
2023-01-20T03:10:58.425Z,-1.63
2023-01-20T03:11:59.648Z,-1.71
2023-01-20T03:12:59.919Z,-1.68
2023-01-20T03:14:00.150Z,-1.72
2023-01-20T03:15:00.702Z,-1.68
2023-01-20T03:16:01.068Z,-1.72
2023-01-20T03:17:01.402Z,-1.61
2023-01-20T03:18:02.311Z,-1.66
2023-01-20T03:19:03.305Z,-1.69
2023-01-20T03:20:04.493Z,-1.68
2023-01-20T03:21:05.004Z,-1.79
2023-01-20T03:22:04.953Z,-1.81
2023-01-20T03:23:06.003Z,-1.76
2023-01-20T03:24:06.023Z,-1.76
2023-01-20T03:25:06.951Z,-1.75
2023-01-20T03:26:06.822Z,-1.81
2023-01-20T03:27:07.740Z,-1.76
2023-01-20T03:28:08.972Z,-1.78
2023-01-20T03:29:09.194Z,-1.82
2023-01-20T03:30:10.181Z,-1.74
2023-01-20T03:31:11.096Z,-1.71
2023-01-20T03:32:11.113Z,-1.72
2023-01-20T03:33:11.116Z,-1.68
2023-01-20T03:34:11.438Z,-1.71
2023-01-20T03:35:11.672Z,-1.72
2023-01-20T03:36:12.324Z,-1.68
2023-01-20T03:37:12.234Z,-1.68
2023-01-20T03:38:12.561Z,-1.74
2023-01-20T03:39:13.759Z,-1.72
2023-01-20T03:40:13.955Z,-1.71
2023-01-20T03:41:14.871Z,-1.72
2023-01-20T03:42:15.104Z,-1.76
2023-01-20T03:43:16.133Z,-1.71
2023-01-20T03:44:17.095Z,-1.84
2023-01-20T03:45:17.710Z,-1.72
2023-01-20T03:46:18.329Z,-1.76
2023-01-20T03:47:18.862Z,-1.68
2023-01-20T03:48:18.503Z,-1.74
2023-01-20T03:49:19.410Z,-1.72
2023-01-20T03:50:19.303Z,-1.66
2023-01-20T03:51:20.226Z,-1.69
2023-01-20T03:52:20.852Z,-1.71
2023-01-20T03:53:30.211Z,-1.78
2023-01-20T03:54:31.401Z,-1.71
2023-01-20T03:55:31.606Z,-1.71
2023-01-20T03:56:31.810Z,-1.82
2023-01-20T03:57:31.726Z,-1.81
2023-01-20T03:58:32.380Z,-1.75
2023-01-20T03:59:32.761Z,-1.84
2023-01-20T04:00:36.682Z,-1.82
2023-01-20T04:01:34.682Z,-1.79
2023-01-20T04:02:35.313Z,-1.89
2023-01-20T04:03:35.392Z,-1.89
2023-01-20T04:04:36.039Z,-1.94
2023-01-20T04:05:36.546Z,-1.94
2023-01-20T04:06:37.472Z,-1.97
2023-01-20T04:07:37.831Z,-2.04
2023-01-20T04:08:38.750Z,-2
2023-01-20T04:09:39.704Z,-2.05
2023-01-20T04:10:39.895Z,-2.08
2023-01-20T04:11:40.568Z,-2.1
2023-01-20T04:12:42.182Z,-2.04
2023-01-20T04:13:42.172Z,-2.2
2023-01-20T04:14:43.201Z,-2.05
2023-01-20T04:15:43.807Z,-2.11
2023-01-20T04:16:43.530Z,-2.1
2023-01-20T04:17:43.783Z,-2.1
2023-01-20T04:18:44.992Z,-2.1
2023-01-20T04:19:45.263Z,-2.13
2023-01-20T04:20:45.880Z,-2.1
2023-01-20T04:21:46.828Z,-2.07
2023-01-20T04:22:47.317Z,-2.1
2023-01-20T04:23:47.673Z,-1.99
2023-01-20T04:24:47.645Z,-2.07
2023-01-20T04:25:47.870Z,-1.99
2023-01-20T04:26:48.349Z,-2
2023-01-20T04:27:48.991Z,-2
2023-01-20T04:28:49.657Z,-1.99
2023-01-20T04:29:50.869Z,-1.94
2023-01-20T04:30:52.252Z,-1.97
2023-01-20T04:31:51.996Z,-2
2023-01-20T04:32:52.402Z,-1.99
2023-01-20T04:33:53.757Z,-1.92
2023-01-20T04:34:53.379Z,-1.9
2023-01-20T04:35:54.888Z,-1.81
2023-01-20T04:36:55.077Z,-1.82
2023-01-20T04:37:56.003Z,-1.84
2023-01-20T04:38:56.932Z,-1.78
2023-01-20T04:39:58.146Z,-1.74
2023-01-20T04:40:58.340Z,-1.75
2023-01-20T04:41:59.265Z,-1.71
2023-01-20T04:43:00.203Z,-1.63
2023-01-20T04:44:00.661Z,-1.71
2023-01-20T04:45:01.919Z,-1.66
2023-01-20T04:46:02.280Z,-1.61
2023-01-20T04:47:02.867Z,-1.64
2023-01-20T04:48:03.386Z,-1.6
2023-01-20T04:49:04.095Z,-1.66
2023-01-20T04:50:04.785Z,-1.69
2023-01-20T04:51:04.775Z,-1.61
2023-01-20T04:52:05.983Z,-1.54
2023-01-20T04:53:06.427Z,-1.63
2023-01-20T04:54:07.426Z,-1.6
2023-01-20T04:55:08.337Z,-1.64
2023-01-20T04:56:09.389Z,-1.6
2023-01-20T04:57:09.302Z,-1.61
2023-01-20T04:58:09.989Z,-1.6
2023-01-20T04:59:11.465Z,-1.56
2023-01-20T05:00:12.398Z,-1.56
2023-01-20T05:01:13.233Z,-1.61
2023-01-20T05:02:13.107Z,-1.63
2023-01-20T05:03:13.782Z,-1.61
2023-01-20T05:04:14.464Z,-1.64
2023-01-20T05:05:15.800Z,-1.6
2023-01-20T05:06:15.776Z,-1.53
2023-01-20T05:07:16.967Z,-1.57
2023-01-20T05:08:16.874Z,-1.57
2023-01-20T05:09:17.380Z,-1.6
2023-01-20T05:10:19.284Z,-1.57
2023-01-20T05:11:18.781Z,-1.54
2023-01-20T05:12:18.707Z,-1.53
2023-01-20T05:13:19.745Z,-1.6
2023-01-20T05:14:20.449Z,-1.53
2023-01-20T05:15:21.826Z,-1.54
2023-01-20T05:16:22.593Z,-1.53
2023-01-20T05:17:22.823Z,-1.48
2023-01-20T05:18:23.073Z,-1.42
2023-01-20T05:19:24.279Z,-1.45
2023-01-20T05:20:24.795Z,-1.5
2023-01-20T05:21:25.006Z,-1.45
2023-01-20T05:22:25.923Z,-1.54
2023-01-20T05:23:26.832Z,-1.51
2023-01-20T05:24:27.485Z,-1.54
2023-01-20T05:25:27.674Z,-1.46
2023-01-20T05:26:27.886Z,-1.43
2023-01-20T05:27:28.515Z,-1.45
2023-01-20T05:28:30.020Z,-1.46
2023-01-20T05:29:30.236Z,-1.45
2023-01-20T05:30:31.056Z,-1.45
2023-01-20T05:31:32.165Z,-1.43
2023-01-20T05:32:32.280Z,-1.43
2023-01-20T05:33:32.240Z,-1.48
2023-01-20T05:34:33.527Z,-1.43
2023-01-20T05:35:34.452Z,-1.45
2023-01-20T05:36:35.089Z,-1.43
2023-01-20T05:37:35.468Z,-1.39
2023-01-20T05:38:36.419Z,-1.48
2023-01-20T05:39:37.639Z,-1.5
2023-01-20T05:40:38.280Z,-1.46
2023-01-20T05:41:38.924Z,-1.42
2023-01-20T05:42:39.873Z,-1.43
2023-01-20T05:43:40.805Z,-1.46
2023-01-20T05:44:41.424Z,-1.5
2023-01-20T05:45:41.691Z,-1.45
2023-01-20T05:46:42.821Z,-1.45
2023-01-20T05:47:42.798Z,-1.42
2023-01-20T05:48:43.420Z,-1.42
2023-01-20T05:49:43.629Z,-1.45
2023-01-20T05:50:44.024Z,-1.46
2023-01-20T05:51:44.642Z,-1.46
2023-01-20T05:52:45.264Z,-1.48
2023-01-20T05:53:45.469Z,-1.54
2023-01-20T05:54:46.730Z,-1.48
2023-01-20T05:55:47.646Z,-1.51
2023-01-20T05:56:47.838Z,-1.45
2023-01-20T05:57:48.070Z,-1.45
2023-01-20T05:58:48.262Z,-1.42
2023-01-20T05:59:49.460Z,-1.48
2023-01-20T06:00:50.168Z,-1.39
2023-01-20T06:01:51.010Z,-1.48
2023-01-20T06:02:51.481Z,-1.35
2023-01-20T06:03:52.481Z,-1.42
2023-01-20T06:04:52.911Z,-1.35
2023-01-20T06:05:52.853Z,-1.35
2023-01-20T06:06:53.349Z,-1.36
2023-01-20T06:07:53.852Z,-1.42
2023-01-20T06:08:54.067Z,-1.42
2023-01-20T06:09:54.551Z,-1.39
2023-01-20T06:10:56.565Z,-1.42
2023-01-20T06:11:55.783Z,-1.48
2023-01-20T06:12:56.039Z,-1.46
2023-01-20T06:13:56.000Z,-1.45
2023-01-20T06:14:56.419Z,-1.39
2023-01-20T06:15:57.273Z,-1.39
2023-01-20T06:16:57.606Z,-1.32
2023-01-20T06:17:58.129Z,-1.32
2023-01-20T06:18:58.650Z,-1.3
2023-01-20T06:19:58.560Z,-1.27
2023-01-20T06:20:59.226Z,-1.3
2023-01-20T06:21:59.750Z,-1.29
2023-01-20T06:22:59.968Z,-1.3
2023-01-20T06:24:00.177Z,-1.27
2023-01-20T06:25:01.231Z,-1.27
2023-01-20T06:26:01.863Z,-1.27
2023-01-20T06:27:02.437Z,-1.3
2023-01-20T06:28:02.865Z,-1.27
2023-01-20T06:29:03.489Z,-1.29
2023-01-20T06:30:04.406Z,-1.3
2023-01-20T06:31:05.332Z,-1.3
2023-01-20T06:32:05.729Z,-1.27
2023-01-20T06:33:05.657Z,-1.4
2023-01-20T06:34:05.879Z,-1.29
2023-01-20T06:35:07.158Z,-1.38
2023-01-20T06:36:07.351Z,-1.35
2023-01-20T06:37:07.269Z,-1.3
2023-01-20T06:38:08.213Z,-1.36
2023-01-20T06:39:09.150Z,-1.33
2023-01-20T06:40:10.079Z,-1.29
2023-01-20T06:41:10.996Z,-1.36
2023-01-20T06:42:12.246Z,-1.27
2023-01-20T06:43:12.170Z,-1.27
2023-01-20T06:44:12.807Z,-1.3
2023-01-20T06:45:14.941Z,-1.29
2023-01-20T06:46:14.287Z,-1.24
2023-01-20T06:47:14.648Z,-1.27
2023-01-20T06:48:15.302Z,-1.32
2023-01-20T06:49:15.867Z,-1.27
2023-01-20T06:50:16.108Z,-1.27
2023-01-20T06:51:17.059Z,-1.32
2023-01-20T06:52:17.568Z,-1.32
2023-01-20T06:53:18.102Z,-1.3
2023-01-20T06:54:17.728Z,-1.29
2023-01-20T06:55:18.908Z,-1.3
2023-01-20T06:56:18.032Z,-1.29
2023-01-20T06:57:18.946Z,-1.3
2023-01-20T06:58:20.132Z,-1.24
2023-01-20T06:59:20.444Z,-1.29
2023-01-20T07:00:21.450Z,-1.33
2023-01-20T07:01:23.100Z,-1.19
2023-01-20T07:02:22.930Z,-1.17
2023-01-20T07:03:23.300Z,-1.32
2023-01-20T07:04:23.552Z,-1.25
2023-01-20T07:05:24.884Z,-1.29
2023-01-20T07:06:25.109Z,-1.3
2023-01-20T07:07:25.311Z,-1.18
2023-01-20T07:08:26.264Z,-1.18
2023-01-20T07:09:27.472Z,-1.17
2023-01-20T07:10:27.174Z,-1.15
2023-01-20T07:11:28.453Z,-1.15
2023-01-20T07:12:29.149Z,-1.07
2023-01-20T07:13:30.072Z,-1.09
2023-01-20T07:14:31.269Z,-1.17
2023-01-20T07:15:31.831Z,-1.12
2023-01-20T07:16:33.002Z,-1.12
2023-01-20T07:17:33.426Z,-1.14
2023-01-20T07:18:34.364Z,-1.09
2023-01-20T07:19:34.626Z,-1.11
2023-01-20T07:20:34.912Z,-1.01
2023-01-20T07:21:35.884Z,-1.04
2023-01-20T07:22:36.807Z,-1
2023-01-20T07:23:37.320Z,-0.99
2023-01-20T07:24:37.816Z,-0.94
2023-01-20T07:25:38.862Z,-0.94
2023-01-20T07:26:39.081Z,-1.01
2023-01-20T07:27:39.609Z,-1
2023-01-20T07:28:40.275Z,-0.99
2023-01-20T07:29:40.753Z,-0.94
2023-01-20T07:30:41.419Z,-1.07
2023-01-20T07:31:41.999Z,-1.01
2023-01-20T07:32:42.605Z,-0.94
2023-01-20T07:33:42.878Z,-0.93
2023-01-20T07:34:43.125Z,-0.94
2023-01-20T07:35:44.369Z,-0.89
2023-01-20T07:36:44.047Z,-0.94
2023-01-20T07:37:44.976Z,-0.78
2023-01-20T07:38:45.641Z,-0.81
2023-01-20T07:39:45.569Z,-0.72
2023-01-20T07:40:46.775Z,-0.69
2023-01-20T07:41:47.271Z,-0.75
2023-01-20T07:42:47.485Z,-0.85
2023-01-20T07:43:47.969Z,-0.82
2023-01-20T07:44:48.283Z,-0.77
2023-01-20T07:45:49.683Z,-0.8
2023-01-20T07:46:49.523Z,-0.81
2023-01-20T07:47:50.476Z,-0.89
2023-01-20T07:48:51.697Z,-0.84
2023-01-20T07:49:51.950Z,-0.78
2023-01-20T07:50:53.243Z,-0.78
2023-01-20T07:51:54.179Z,-0.8
2023-01-20T07:52:54.541Z,-0.77
2023-01-20T07:53:55.748Z,-0.7
2023-01-20T07:54:56.241Z,-0.82
2023-01-20T07:55:57.035Z,-0.7
2023-01-20T07:56:57.230Z,-0.81
2023-01-20T07:57:57.869Z,-0.74
2023-01-20T07:58:57.795Z,-0.75
2023-01-20T07:59:58.468Z,-0.75
2023-01-20T08:00:58.929Z,-0.77
2023-01-20T08:01:59.579Z,-0.67
2023-01-20T08:02:59.850Z,-0.74
2023-01-20T08:04:00.093Z,-0.81
2023-01-20T08:05:00.859Z,-0.75
2023-01-20T08:06:01.048Z,-0.64
2023-01-20T08:07:02.273Z,-0.64
2023-01-20T08:08:02.499Z,-0.64
2023-01-20T08:09:04.836Z,-0.67
2023-01-20T08:10:02.763Z,-0.63
2023-01-20T08:11:03.580Z,-0.63
2023-01-20T08:12:04.790Z,-0.62
2023-01-20T08:13:05.272Z,-0.7
2023-01-20T08:14:05.758Z,-0.59
2023-01-20T08:15:05.712Z,-0.66
2023-01-20T08:16:06.137Z,-0.63
2023-01-20T08:17:06.913Z,-0.54
2023-01-20T08:18:07.585Z,-0.57
2023-01-20T08:19:08.628Z,-0.39
2023-01-20T08:20:09.194Z,-0.53
2023-01-20T08:21:09.150Z,-0.56
2023-01-20T08:22:10.121Z,-0.48
2023-01-20T08:23:10.642Z,-0.51
2023-01-20T08:24:10.892Z,-0.46
2023-01-20T08:25:12.172Z,-0.49
2023-01-20T08:26:12.963Z,-0.48
2023-01-20T08:27:13.632Z,-0.48
2023-01-20T08:28:13.858Z,-0.41
2023-01-20T08:29:15.072Z,-0.57
2023-01-20T08:30:14.981Z,-0.66
2023-01-20T08:31:15.692Z,-0.69
2023-01-20T08:32:16.504Z,-0.6
2023-01-20T08:33:16.439Z,-0.69
2023-01-20T08:34:16.686Z,-0.7
2023-01-20T08:35:17.665Z,-0.63
2023-01-20T08:36:17.721Z,-0.66
2023-01-20T08:37:18.665Z,-0.54
2023-01-20T08:38:19.338Z,-0.51
2023-01-20T08:39:19.581Z,-0.49
2023-01-20T08:40:20.087Z,-0.48
2023-01-20T08:41:20.444Z,-0.48
2023-01-20T08:42:20.420Z,-0.45
2023-01-20T08:43:20.617Z,-0.36
2023-01-20T08:44:21.543Z,-0.36
2023-01-20T08:45:22.443Z,-0.39
2023-01-20T08:46:22.983Z,-0.28
2023-01-20T08:47:23.499Z,-0.27
2023-01-20T08:48:23.755Z,-0.27
2023-01-20T08:49:24.023Z,-0.28
2023-01-20T08:50:24.640Z,-0.27
2023-01-20T08:51:25.324Z,-0.18
2023-01-20T08:52:25.719Z,-0.2
2023-01-20T08:53:25.949Z,-0.23
2023-01-20T08:54:27.142Z,-0.27
2023-01-20T08:55:27.386Z,-0.2
2023-01-20T08:56:27.857Z,-0.27
2023-01-20T08:57:28.787Z,-0.1
2023-01-20T08:58:31.487Z,-0.05
2023-01-20T08:59:30.416Z,-0.07
2023-01-20T09:00:30.961Z,0
2023-01-20T09:01:31.380Z,0
2023-01-20T09:02:32.245Z,-0.06
2023-01-20T09:03:33.623Z,-0.02
2023-01-20T09:04:32.792Z,-0.06
2023-01-20T09:05:33.341Z,0.06
2023-01-20T09:06:33.758Z,0.01
2023-01-20T09:07:34.026Z,0.09
2023-01-20T09:08:35.305Z,0.08
2023-01-20T09:09:35.860Z,0.15
2023-01-20T09:10:36.569Z,0.13
2023-01-20T09:11:37.694Z,0.11
2023-01-20T09:12:38.315Z,0.11
2023-01-20T09:13:38.829Z,0.11
2023-01-20T09:14:39.030Z,0.12
2023-01-20T09:15:39.917Z,0.11
2023-01-20T09:16:40.288Z,0.18
2023-01-20T09:17:41.117Z,0.19
2023-01-20T09:18:42.342Z,0.27
2023-01-20T09:19:42.893Z,0.23
2023-01-20T09:20:43.485Z,0.19
2023-01-20T09:21:43.409Z,0.26
2023-01-20T09:22:44.518Z,0.26
2023-01-20T09:23:44.490Z,0.26
2023-01-20T09:24:44.764Z,0.29
2023-01-20T09:25:45.417Z,0.27
2023-01-20T09:26:47.008Z,0.31
2023-01-20T09:27:47.074Z,0.26
2023-01-20T09:28:47.895Z,0.31
2023-01-20T09:29:48.431Z,0.26
2023-01-20T09:30:48.866Z,0.27
2023-01-20T09:31:49.783Z,0.3
2023-01-20T09:32:50.303Z,0.31
2023-01-20T09:33:50.351Z,0.3
2023-01-20T09:34:50.871Z,0.27
2023-01-20T09:35:51.412Z,0.31
2023-01-20T09:36:51.873Z,0.3
2023-01-20T09:37:53.368Z,0.42
2023-01-20T09:38:53.603Z,0.27
2023-01-20T09:39:53.886Z,0.45
2023-01-20T09:40:54.969Z,0.47
2023-01-20T09:41:54.987Z,0.42
2023-01-20T09:42:55.969Z,0.42
2023-01-20T09:43:56.931Z,0.4
2023-01-20T09:44:57.454Z,0.47
2023-01-20T09:45:58.318Z,0.39
2023-01-20T09:46:58.212Z,0.48
2023-01-20T09:47:58.428Z,0.39
2023-01-20T09:48:58.397Z,0.36
2023-01-20T09:49:59.519Z,0.44
2023-01-20T09:51:00.081Z,0.44
2023-01-20T09:52:00.610Z,0.45
2023-01-20T09:53:01.266Z,0.45
2023-01-20T09:54:02.226Z,0.56
2023-01-20T09:55:02.463Z,0.48
2023-01-20T09:56:03.104Z,0.51
2023-01-20T09:57:03.939Z,0.61
2023-01-20T09:58:05.236Z,0.63
2023-01-20T09:59:05.222Z,0.59
2023-01-20T10:00:06.187Z,0.64
2023-01-20T10:01:07.289Z,0.7
2023-01-20T10:02:07.799Z,0.64
2023-01-20T10:03:08.487Z,0.67
2023-01-20T10:04:11.023Z,0.74
2023-01-20T10:05:10.207Z,0.78
2023-01-20T10:06:10.376Z,0.76
2023-01-20T10:07:11.713Z,0.82
2023-01-20T10:08:13.046Z,0.85
2023-01-20T10:09:12.981Z,0.92
2023-01-20T10:10:14.256Z,0.99
2023-01-20T10:11:14.271Z,1.02
2023-01-20T10:12:14.615Z,1
2023-01-20T10:13:14.835Z,0.95
2023-01-20T10:14:15.195Z,0.99
2023-01-20T10:15:16.117Z,1
2023-01-20T10:16:17.298Z,1
2023-01-20T10:17:17.865Z,0.95
2023-01-20T10:18:18.225Z,0.95
2023-01-20T10:19:18.979Z,1.1
2023-01-20T10:20:19.636Z,1.1
2023-01-20T10:21:19.964Z,1.2
2023-01-20T10:22:19.911Z,1.14
2023-01-20T10:23:20.830Z,1.24
2023-01-20T10:24:21.474Z,1.3
2023-01-20T10:25:21.678Z,1.3
2023-01-20T10:26:22.015Z,1.32
2023-01-20T10:27:22.574Z,1.22
2023-01-20T10:28:22.800Z,1.34
2023-01-20T10:29:23.305Z,1.36
2023-01-20T10:30:24.244Z,1.43
2023-01-20T10:31:24.481Z,1.56
2023-01-20T10:32:25.006Z,1.5
2023-01-20T10:33:25.760Z,1.63
2023-01-20T10:34:26.197Z,1.5
2023-01-20T10:35:27.460Z,1.7
2023-01-20T10:36:27.722Z,1.61
2023-01-20T10:37:28.710Z,1.66
2023-01-20T10:38:29.220Z,1.71
2023-01-20T10:39:30.211Z,1.67
2023-01-20T10:40:30.945Z,1.64
2023-01-20T10:41:30.386Z,1.64
2023-01-20T10:42:31.036Z,1.64
2023-01-20T10:43:31.988Z,1.7
2023-01-20T10:44:32.237Z,1.74
2023-01-20T10:45:33.471Z,1.71
2023-01-20T10:46:33.835Z,1.67
2023-01-20T10:47:34.419Z,1.75
2023-01-20T10:48:35.085Z,1.81
2023-01-20T10:49:35.773Z,1.81
2023-01-20T10:50:36.217Z,1.71
2023-01-20T10:51:37.170Z,1.71
2023-01-20T10:52:36.861Z,1.78
2023-01-20T10:53:37.520Z,1.76
2023-01-20T10:54:37.505Z,1.75
2023-01-20T10:55:37.727Z,1.81
2023-01-20T10:56:38.751Z,1.78
2023-01-20T10:57:39.330Z,1.78
2023-01-20T10:58:40.253Z,1.86
2023-01-20T10:59:39.904Z,1.79
2023-01-20T11:00:41.115Z,1.79
2023-01-20T11:01:41.789Z,1.78
2023-01-20T11:02:41.824Z,1.78
2023-01-20T11:03:41.865Z,1.75
2023-01-20T11:04:42.842Z,1.79
2023-01-20T11:05:43.061Z,1.84
2023-01-20T11:06:43.513Z,1.84
2023-01-20T11:07:43.695Z,1.89
2023-01-20T11:08:44.798Z,1.85
2023-01-20T11:09:45.051Z,1.86
2023-01-20T11:10:45.548Z,1.85
2023-01-20T11:11:45.486Z,1.85
2023-01-20T11:12:46.026Z,1.76
2023-01-20T11:13:46.268Z,1.82
2023-01-20T11:14:46.200Z,1.76
2023-01-20T11:15:47.501Z,1.66
2023-01-20T11:16:47.541Z,1.68
2023-01-20T11:17:48.820Z,1.67
2023-01-20T11:18:49.105Z,1.7
2023-01-20T11:19:49.044Z,1.66
2023-01-20T11:20:50.028Z,1.6
2023-01-20T11:21:50.286Z,1.68
2023-01-20T11:22:50.931Z,1.74
2023-01-20T11:23:51.596Z,1.84
2023-01-20T11:24:52.882Z,1.75
2023-01-20T11:25:53.092Z,1.78
2023-01-20T11:26:54.032Z,1.81
2023-01-20T11:27:53.880Z,1.67
2023-01-20T11:28:55.102Z,1.85
2023-01-20T11:29:55.048Z,1.74
2023-01-20T11:30:55.715Z,1.81
2023-01-20T11:31:55.705Z,1.78
2023-01-20T11:32:56.713Z,1.86
2023-01-20T11:33:57.389Z,1.79
2023-01-20T11:34:58.103Z,1.82
2023-01-20T11:35:59.077Z,1.84
2023-01-20T11:36:59.606Z,1.82
2023-01-20T11:38:00.319Z,1.81
2023-01-20T11:39:00.608Z,1.81
2023-01-20T11:40:01.229Z,1.71
2023-01-20T11:41:00.877Z,1.75
2023-01-20T11:42:01.551Z,1.71
2023-01-20T11:43:02.788Z,1.71
2023-01-20T11:44:02.750Z,1.75
2023-01-20T11:45:22.215Z,1.71
2023-01-20T11:46:04.433Z,1.76
2023-01-20T11:47:04.763Z,1.74
2023-01-20T11:48:04.286Z,1.84
2023-01-20T11:49:05.218Z,1.61
2023-01-20T11:50:05.525Z,1.67
2023-01-20T11:51:06.246Z,1.66
2023-01-20T11:52:06.907Z,1.76
2023-01-20T11:53:06.844Z,1.71
2023-01-20T11:54:07.769Z,1.64
2023-01-20T11:55:07.986Z,1.68
2023-01-20T11:56:08.636Z,1.53
2023-01-20T11:57:08.559Z,1.4
2023-01-20T11:58:09.272Z,1.31
2023-01-20T11:59:09.781Z,1.3
2023-01-20T12:00:10.278Z,1.3
2023-01-20T12:01:10.427Z,1.22
2023-01-20T12:02:11.872Z,1.18
2023-01-20T12:03:12.483Z,1.1
2023-01-20T12:04:12.891Z,1.16
2023-01-20T12:05:13.434Z,1.12
2023-01-20T12:06:13.430Z,1.16
2023-01-20T12:07:14.029Z,1.13
2023-01-20T12:08:14.821Z,1.14
2023-01-20T12:09:15.758Z,1.13
2023-01-20T12:10:17.973Z,1.12
2023-01-20T12:11:17.081Z,1.28
2023-01-20T12:12:17.093Z,1.31
2023-01-20T12:13:18.290Z,1.38
2023-01-20T12:14:17.942Z,1.34
2023-01-20T12:15:19.151Z,1.42
2023-01-20T12:16:19.445Z,1.32
2023-01-20T12:17:19.945Z,1.42
2023-01-20T12:18:20.384Z,1.43
2023-01-20T12:19:21.705Z,1.39
2023-01-20T12:20:23.020Z,1.34
2023-01-20T12:21:23.299Z,1.31
2023-01-20T12:22:23.613Z,1.31
2023-01-20T12:23:24.571Z,1.31
2023-01-20T12:24:42.875Z,1.24
2023-01-20T12:25:25.786Z,1.2
2023-01-20T12:26:26.316Z,1.1
2023-01-20T12:27:26.517Z,1.18
2023-01-20T12:28:27.119Z,1.13
2023-01-20T12:29:27.326Z,1.18
2023-01-20T12:30:28.878Z,1.09
2023-01-20T12:31:28.072Z,1.02
2023-01-20T12:32:28.450Z,0.95
2023-01-20T12:33:29.016Z,1.06
2023-01-20T12:34:29.562Z,0.94
2023-01-20T12:35:30.239Z,0.91
2023-01-20T12:36:30.185Z,0.82
2023-01-20T12:37:30.445Z,0.88
2023-01-20T12:38:30.868Z,0.84
2023-01-20T12:39:31.515Z,0.77
2023-01-20T12:40:32.026Z,0.71
2023-01-20T12:41:32.539Z,0.76
2023-01-20T12:42:32.478Z,0.78
2023-01-20T12:43:33.801Z,0.77
2023-01-20T12:44:34.049Z,0.77
2023-01-20T12:45:35.043Z,0.77
2023-01-20T12:46:35.084Z,0.77
2023-01-20T12:47:35.302Z,0.77
2023-01-20T12:48:36.380Z,0.81
2023-01-20T12:49:36.367Z,0.82
2023-01-20T12:50:36.893Z,0.94
2023-01-20T12:51:37.439Z,0.86
2023-01-20T12:52:37.856Z,1
2023-01-20T12:53:39.048Z,1
2023-01-20T12:54:53.413Z,0.96
2023-01-20T12:55:39.632Z,1.09
2023-01-20T12:56:39.978Z,1
2023-01-20T12:57:41.186Z,1.03
2023-01-20T12:58:41.658Z,1.1
2023-01-20T12:59:42.946Z,1.24
2023-01-20T13:00:43.454Z,1.28
2023-01-20T13:01:44.481Z,1.21
2023-01-20T13:02:45.648Z,1.25
2023-01-20T13:03:46.014Z,1.28
2023-01-20T13:04:46.532Z,1.3
2023-01-20T13:05:47.772Z,1.14
2023-01-20T13:06:47.754Z,1.14
2023-01-20T13:07:48.035Z,1.07
2023-01-20T13:08:49.159Z,1.12
2023-01-20T13:09:49.134Z,1.02
2023-01-20T13:10:54.920Z,1.04
2023-01-20T13:11:49.830Z,1.09